Flight Track Log - Related Links

Times and Time Zones

All times are in EDT time to prevent confusion due to time zone crossing. See the AAL1191 flight status page for this flight to view local times or setup timezone preferences in your user account.

Time Position Orientation Groundspeed Altitude Reporting Facility
EDT Latitude Longitude Course Direction KTS MPH feet Rate Location/Type
Fri 12:55:49 PM 18.4500 -65.9667 228° Southwest 170 196 1,300  Level San Juan Center
Fri 12:56:49 PM 18.5167 -66.0000 335° Northwest 240 276 3,600 2,100 Climbing San Juan Center
Fri 12:57:49 PM 18.4833 -66.0500 235° Southwest 280 322 5,500 2,479 Climbing San Juan Center
Fri 12:58:00 PM 18.2570 -66.1929 224° Southwest  Level FlightAware Approximate
Fri 12:58:50 PM 18.4167 -66.1000 215° Southwest 280 322 8,600  Level San Juan Center
Fri 12:59:00 PM 18.1996 -66.2588 228° Southwest  Level FlightAware Approximate
Fri 12:59:50 PM 18.3333 -66.1500 210° Southwest 310 357 10,700  Level San Juan Center
Fri 01:00:00 PM 18.1427 -66.3251 228° Southwest  Level FlightAware Approximate
Fri 01:00:50 PM 18.2333 -66.1667 189° South 380 437 12,900  Level San Juan Center
Fri 01:01:00 PM 18.0859 -66.3915 228° Southwest  Level FlightAware Approximate
Fri 01:01:51 PM 18.1333 -66.2000 198° South 390 449 15,400  Level San Juan Center
Fri 01:02:51 PM 18.0167 -66.2167 188° South 410 472 18,000 2,550 Climbing San Juan Center
Fri 01:03:51 PM 17.9333 -66.2333 191° South 420 483 20,500 2,331 Climbing San Juan Center
Fri 01:04:52 PM 17.8167 -66.2500 188° South 430 495 22,700 2,182 Climbing San Juan Center
Fri 01:05:52 PM 17.6667 -66.2667 186° South 450 518 24,900 2,100 Climbing San Juan Center
Fri 01:06:52 PM 17.5333 -66.3000 193° South 460 529 26,900 1,983 Climbing San Juan Center
Fri 01:07:53 PM 17.4000 -66.3167 187° South 460 529 28,900 1,686 Climbing San Juan Center
Fri 01:08:53 PM 17.2833 -66.3333 188° South 470 541 30,300 1,400 Climbing San Juan Center
Fri 01:09:53 PM 17.1500 -66.3667 193° South 480 552 31,700 1,438 Climbing San Juan Center
Fri 01:10:54 PM 17.0167 -66.3833 187° South 490 564 33,200 1,736 Climbing San Juan Center
Fri 01:11:54 PM 16.8833 -66.4000 187° South 470 541 35,200 1,900 Climbing San Juan Center
Fri 01:12:54 PM 16.7500 -66.4333 193° South 470 541 37,000 1,800 Climbing San Juan Center
Fri 01:13:54 PM 16.6333 -66.4500 188° South 450 518 38,800 1,488 Climbing San Juan Center
Fri 01:14:55 PM 16.5000 -66.4667 187° South 440 506 40,000 595 Climbing San Juan Center
Fri 01:15:55 PM 16.3833 -66.4833 188° South 440 506 40,000  Level San Juan Center
Fri 01:16:55 PM 16.2667 -66.5000 188° South 440 506 40,000  Level San Juan Center
Fri 01:17:56 PM 16.1333 -66.5333 194° South 450 518 40,000  Level San Juan Center
Fri 01:18:56 PM 16.0167 -66.5500 188° South 450 518 40,000  Level San Juan Center
Fri 01:19:56 PM 15.8833 -66.5667 187° South 450 518 40,000  Level San Juan Center
Fri 01:20:57 PM 15.7667 -66.5833 188° South 450 518 40,000  Level San Juan Center
Fri 01:21:57 PM 15.6500 -66.6167 195° South 440 506 40,000  Level San Juan Center
Fri 01:22:57 PM 15.5167 -66.6333 187° South 450 518 40,000  Level San Juan Center
Fri 01:24:00 PM 15.4008 -66.6370 182° South  Level FlightAware Approximate
Fri 01:31:00 PM 14.6285 -66.6611 182° South  Level FlightAware Approximate
Fri 01:32:00 PM 14.5182 -66.6646 182° South  Level FlightAware Approximate
Fri 01:33:00 PM 14.4079 -66.6667 180° South  Level FlightAware Approximate
Fri 01:34:00 PM 14.2975 -66.6667 180° South  Level FlightAware Approximate
Fri 01:35:00 PM 14.1871 -66.6667 180° South  Level FlightAware Approximate
Fri 01:36:00 PM 14.0767 -66.6667 180° South  Level FlightAware Approximate
Fri 01:37:00 PM 13.9663 -66.6667 180° South  Level FlightAware Approximate
Fri 01:38:00 PM 13.8560 -66.6667 180° South  Level FlightAware Approximate
Fri 01:39:00 PM 13.7456 -66.6667 180° South  Level FlightAware Approximate
Fri 01:40:00 PM 13.6352 -66.6667 180° South  Level FlightAware Approximate
Fri 01:41:00 PM 13.5248 -66.6667 180° South  Level FlightAware Approximate
Fri 01:42:00 PM 13.4144 -66.6667 180° South  Level FlightAware Approximate
Fri 01:43:00 PM 13.3041 -66.6667 180° South  Level FlightAware Approximate
Fri 01:44:00 PM 13.1937 -66.6667 180° South  Level FlightAware Approximate
Fri 01:45:00 PM 13.0833 -66.6667 180° South  Level FlightAware Approximate
Fri 01:46:00 PM 12.9729 -66.6667 180° South  Level FlightAware Approximate
Fri 01:47:00 PM 12.8625 -66.6667 180° South  Level FlightAware Approximate
Fri 01:48:00 PM 12.7522 -66.6667 180° South  Level FlightAware Approximate
Fri 01:49:00 PM 12.6418 -66.6667 180° South  Level FlightAware Approximate
Fri 01:50:00 PM 12.5314 -66.6667 180° South  Level FlightAware Approximate
Fri 01:51:00 PM 12.4210 -66.6667 180° South  Level FlightAware Approximate
Fri 01:52:00 PM 12.3107 -66.6667 180° South  Level FlightAware Approximate
Fri 01:53:00 PM 12.2003 -66.6667 180° South  Level FlightAware Approximate
Fri 01:54:00 PM 12.0899 -66.6667 180° South  Level FlightAware Approximate
Fri 01:55:00 PM 11.9795 -66.6667 180° South  Level FlightAware Approximate
Fri 01:56:00 PM 11.8710 -66.6823 194° South  Level FlightAware Approximate
Fri 01:57:00 PM 11.7634 -66.7075 193° South  Level FlightAware Approximate
Fri 01:58:00 PM 11.6558 -66.7326 193° South  Level FlightAware Approximate
Fri 01:59:00 PM 11.5482 -66.7577 193° South  Level FlightAware Approximate
Fri 02:00:00 PM 11.4406 -66.7828 193° South  Level FlightAware Approximate
Fri 02:01:00 PM 11.3329 -66.8075 192° South  Level FlightAware Approximate
Fri 02:02:00 PM 11.2250 -66.8315 192° South  Level FlightAware Approximate
Fri 02:03:00 PM 11.1178 -66.8580 194° South  Level FlightAware Approximate
Fri 02:04:00 PM 11.0098 -66.8814 191° South  Level FlightAware Approximate
Fri 02:05:00 PM 10.9034 -66.9109 196° South  Level FlightAware Approximate
Fri 02:06:00 PM 10.7957 -66.9292 198° South  Level FlightAware Approximate
Fri 02:07:00 PM 10.6872 -66.9459 191° South  Level FlightAware Approximate
Fri 02:08:00 PM 10.6000 -66.9667 194° South  Level FlightAware Approximate
Fri 02:09:00 PM 10.6031 -66.9906 194° South  Level Estimated
Fri 02:10:00 PM 10.6031 -66.9906 194° South  Level Estimated
Fri 02:11:00 PM 10.6031 -66.9906 194° South  Level Estimated
Fri 02:12:00 PM 10.6031 -66.9906 194° South  Level Estimated
Fri 02:13:00 PM 10.6031 -66.9906 194° South  Level Estimated
Fri 02:14:00 PM 10.6031 -66.9906 194° South  Level Estimated
Fri 02:15:00 PM 10.6031 -66.9906 194° South  Level Estimated
Fri 02:16:00 PM 10.6031 -66.9906 194° South  Level Estimated
Fri 02:17:00 PM 10.6031 -66.9906 194° South  Level Estimated
Fri 02:18:00 PM 10.6031 -66.9906 194° South  Level Estimated
Fri 02:19:00 PM 10.6031 -66.9906 194° South  Level Estimated
Fri 02:20:00 PM 10.6031 -66.9906 194° South  Level Estimated
Fri 02:21:00 PM 10.6031 -66.9906 194° South  Level Estimated
Fri 02:22:00 PM 10.6031 -66.9906 194° South  Level Estimated
Fri 02:23:00 PM 10.6031 -66.9906 194° South  Level Estimated
Fri 02:24:00 PM 10.6031 -66.9906 194° South  Level Estimated
Fri 02:25:00 PM 10.6031 -66.9906 194° South  Level Estimated
Fri 02:26:00 PM 10.6031 -66.9906 194° South  Level Estimated
Fri 02:27:00 PM 10.6031 -66.9906 194° South  Level Estimated
Fri 02:28:00 PM 10.6031 -66.9906 194° South  Level Estimated
Fri 02:29:00 PM 10.6031 -66.9906 194° South  Level Estimated
Fri 02:30:00 PM 10.6031 -66.9906 194° South  Level Estimated
Fri 02:31:00 PM 10.6031 -66.9906 194° South  Level Estimated
Fri 02:32:00 PM 10.6031 -66.9906 194° South  Level Estimated
Fri 02:33:00 PM 10.6031 -66.9906 194° South  Level Estimated
Fri 02:34:00 PM 10.6031 -66.9906 194° South  Level Estimated
Fri 02:35:00 PM 10.6031 -66.9906 194° South  Level Estimated
Fri 02:36:00 PM 10.6031 -66.9906 194° South  Level Estimated
Fri 02:37:00 PM 10.6031 -66.9906 194° South  Level Estimated
Fri 02:38:00 PM 10.6031 -66.9906 194° South  Level Estimated
Fri 02:39:00 PM 10.6031 -66.9906 194° South  Level Estimated
Fri 02:40:00 PM 10.6031 -66.9906 194° South  Level Estimated
Fri 02:41:00 PM 10.6031 -66.9906 194° South  Level Estimated
Fri 02:42:00 PM 10.6031 -66.9906 194° South  Level Estimated
Fri 02:43:00 PM 10.6031 -66.9906 194° South  Level Estimated

Login

Don't have an account? Register now (free) for customized features, flight alerts, and more!